sensor_id;sensor_type;location;lat;lon;timestamp;P1;durP1;ratioP1;P2;durP2;ratioP2
24419;SDS011;12599;52.426;13.330;2022-07-22T00:01:00;7.90;;;7.10;;
24419;SDS011;12599;52.426;13.330;2022-07-22T00:03:26;10.93;;;7.77;;
24419;SDS011;12599;52.426;13.330;2022-07-22T00:05:52;8.23;;;7.37;;
24419;SDS011;12599;52.426;13.330;2022-07-22T00:08:17;9.03;;;7.50;;
24419;SDS011;12599;52.426;13.330;2022-07-22T00:10:43;7.17;;;6.47;;
24419;SDS011;12599;52.426;13.330;2022-07-22T00:13:09;9.77;;;7.77;;
24419;SDS011;12599;52.426;13.330;2022-07-22T00:15:34;9.43;;;7.70;;
24419;SDS011;12599;52.426;13.330;2022-07-22T00:18:00;10.30;;;7.27;;
24419;SDS011;12599;52.426;13.330;2022-07-22T00:20:25;10.90;;;8.17;;
24419;SDS011;12599;52.426;13.330;2022-07-22T00:22:51;10.60;;;7.17;;
24419;SDS011;12599;52.426;13.330;2022-07-22T00:25:17;9.83;;;7.80;;
24419;SDS011;12599;52.426;13.330;2022-07-22T00:27:42;10.33;;;7.40;;
24419;SDS011;12599;52.426;13.330;2022-07-22T00:30:08;8.77;;;7.33;;
24419;SDS011;12599;52.426;13.330;2022-07-22T00:32:34;9.10;;;7.50;;
24419;SDS011;12599;52.426;13.330;2022-07-22T00:35:00;9.53;;;7.60;;
24419;SDS011;12599;52.426;13.330;2022-07-22T00:37:26;9.27;;;7.67;;
24419;SDS011;12599;52.426;13.330;2022-07-22T00:39:51;10.20;;;7.27;;
24419;SDS011;12599;52.426;13.330;2022-07-22T00:42:17;10.33;;;8.07;;
24419;SDS011;12599;52.426;13.330;2022-07-22T00:44:43;9.97;;;7.87;;
24419;SDS011;12599;52.426;13.330;2022-07-22T00:47:09;9.03;;;6.80;;
24419;SDS011;12599;52.426;13.330;2022-07-22T00:49:34;9.00;;;7.80;;
24419;SDS011;12599;52.426;13.330;2022-07-22T00:52:00;8.83;;;7.67;;
24419;SDS011;12599;52.426;13.330;2022-07-22T00:54:26;9.17;;;7.50;;
24419;SDS011;12599;52.426;13.330;2022-07-22T00:56:52;10.43;;;8.07;;
24419;SDS011;12599;52.426;13.330;2022-07-22T00:59:18;11.50;;;8.40;;
24419;SDS011;12599;52.426;13.330;2022-07-22T01:01:43;8.93;;;7.53;;
24419;SDS011;12599;52.426;13.330;2022-07-22T01:04:09;10.17;;;7.70;;
24419;SDS011;12599;52.426;13.330;2022-07-22T01:06:35;10.30;;;7.50;;
24419;SDS011;12599;52.426;13.330;2022-07-22T01:09:00;9.27;;;7.17;;
24419;SDS011;12599;52.426;13.330;2022-07-22T01:11:26;8.83;;;7.47;;
24419;SDS011;12599;52.426;13.330;2022-07-22T01:13:53;7.67;;;6.70;;
24419;SDS011;12599;52.426;13.330;2022-07-22T01:16:20;9.33;;;7.03;;
24419;SDS011;12599;52.426;13.330;2022-07-22T01:18:46;7.53;;;6.57;;
24419;SDS011;12599;52.426;13.330;2022-07-22T01:21:12;8.30;;;6.33;;
24419;SDS011;12599;52.426;13.330;2022-07-22T01:23:39;8.60;;;6.70;;
24419;SDS011;12599;52.426;13.330;2022-07-22T01:26:05;10.87;;;6.43;;
24419;SDS011;12599;52.426;13.330;2022-07-22T01:28:32;8.87;;;6.67;;
24419;SDS011;12599;52.426;13.330;2022-07-22T01:30:57;7.67;;;6.80;;
24419;SDS011;12599;52.426;13.330;2022-07-22T01:33:23;7.10;;;5.80;;
24419;SDS011;12599;52.426;13.330;2022-07-22T01:35:49;9.57;;;6.73;;
24419;SDS011;12599;52.426;13.330;2022-07-22T01:38:15;7.10;;;6.40;;
24419;SDS011;12599;52.426;13.330;2022-07-22T01:40:41;7.77;;;6.63;;
24419;SDS011;12599;52.426;13.330;2022-07-22T01:43:08;8.37;;;6.50;;
24419;SDS011;12599;52.426;13.330;2022-07-22T01:45:34;8.27;;;5.80;;
24419;SDS011;12599;52.426;13.330;2022-07-22T01:47:59;7.37;;;6.20;;
24419;SDS011;12599;52.426;13.330;2022-07-22T01:50:25;6.80;;;5.90;;
24419;SDS011;12599;52.426;13.330;2022-07-22T01:52:51;6.03;;;5.43;;
24419;SDS011;12599;52.426;13.330;2022-07-22T01:55:17;6.90;;;5.67;;
24419;SDS011;12599;52.426;13.330;2022-07-22T01:57:42;6.33;;;5.57;;
24419;SDS011;12599;52.426;13.330;2022-07-22T02:00:08;5.90;;;5.20;;
24419;SDS011;12599;52.426;13.330;2022-07-22T02:02:36;7.23;;;5.30;;
24419;SDS011;12599;52.426;13.330;2022-07-22T02:05:02;7.27;;;5.77;;
24419;SDS011;12599;52.426;13.330;2022-07-22T02:07:29;7.13;;;6.03;;
24419;SDS011;12599;52.426;13.330;2022-07-22T02:09:55;6.47;;;5.70;;
24419;SDS011;12599;52.426;13.330;2022-07-22T02:12:21;8.30;;;5.97;;
24419;SDS011;12599;52.426;13.330;2022-07-22T02:14:46;8.20;;;5.93;;
24419;SDS011;12599;52.426;13.330;2022-07-22T02:17:12;6.90;;;6.20;;
24419;SDS011;12599;52.426;13.330;2022-07-22T02:19:38;8.17;;;6.33;;
24419;SDS011;12599;52.426;13.330;2022-07-22T02:22:04;7.63;;;5.80;;
24419;SDS011;12599;52.426;13.330;2022-07-22T02:24:30;7.73;;;6.17;;
24419;SDS011;12599;52.426;13.330;2022-07-22T02:26:56;7.47;;;6.47;;
24419;SDS011;12599;52.426;13.330;2022-07-22T02:29:21;9.20;;;6.63;;
24419;SDS011;12599;52.426;13.330;2022-07-22T02:31:47;8.07;;;6.30;;
24419;SDS011;12599;52.426;13.330;2022-07-22T02:34:13;8.73;;;6.97;;
24419;SDS011;12599;52.426;13.330;2022-07-22T02:36:39;8.03;;;7.07;;
24419;SDS011;12599;52.426;13.330;2022-07-22T02:39:04;9.83;;;7.33;;
24419;SDS011;12599;52.426;13.330;2022-07-22T02:41:30;9.37;;;7.07;;
24419;SDS011;12599;52.426;13.330;2022-07-22T02:43:56;8.67;;;6.40;;
24419;SDS011;12599;52.426;13.330;2022-07-22T02:46:22;7.43;;;6.73;;
24419;SDS011;12599;52.426;13.330;2022-07-22T02:48:49;9.00;;;7.20;;
24419;SDS011;12599;52.426;13.330;2022-07-22T02:51:14;7.33;;;6.50;;
24419;SDS011;12599;52.426;13.330;2022-07-22T02:53:40;8.87;;;6.83;;
24419;SDS011;12599;52.426;13.330;2022-07-22T02:56:05;8.70;;;7.27;;
24419;SDS011;12599;52.426;13.330;2022-07-22T02:58:31;9.50;;;7.17;;
24419;SDS011;12599;52.426;13.330;2022-07-22T03:00:57;9.00;;;7.33;;
24419;SDS011;12599;52.426;13.330;2022-07-22T03:03:23;9.40;;;7.93;;
24419;SDS011;12599;52.426;13.330;2022-07-22T03:05:49;8.13;;;7.30;;
24419;SDS011;12599;52.426;13.330;2022-07-22T03:08:15;8.73;;;7.10;;
24419;SDS011;12599;52.426;13.330;2022-07-22T03:10:41;10.03;;;7.93;;
24419;SDS011;12599;52.426;13.330;2022-07-22T03:13:07;9.77;;;8.17;;
24419;SDS011;12599;52.426;13.330;2022-07-22T03:15:32;10.37;;;7.87;;
24419;SDS011;12599;52.426;13.330;2022-07-22T03:17:58;9.07;;;7.70;;
24419;SDS011;12599;52.426;13.330;2022-07-22T03:20:23;10.73;;;8.20;;
24419;SDS011;12599;52.426;13.330;2022-07-22T03:22:49;10.07;;;7.53;;
24419;SDS011;12599;52.426;13.330;2022-07-22T03:25:14;10.27;;;8.03;;
24419;SDS011;12599;52.426;13.330;2022-07-22T03:27:40;10.10;;;8.30;;
24419;SDS011;12599;52.426;13.330;2022-07-22T03:30:06;11.37;;;8.60;;
24419;SDS011;12599;52.426;13.330;2022-07-22T03:32:32;11.47;;;8.77;;
24419;SDS011;12599;52.426;13.330;2022-07-22T03:34:57;12.33;;;8.77;;
24419;SDS011;12599;52.426;13.330;2022-07-22T03:37:23;11.00;;;9.43;;
24419;SDS011;12599;52.426;13.330;2022-07-22T03:39:48;10.70;;;9.20;;
24419;SDS011;12599;52.426;13.330;2022-07-22T03:42:14;10.17;;;8.90;;
24419;SDS011;12599;52.426;13.330;2022-07-22T03:44:40;11.87;;;9.87;;
24419;SDS011;12599;52.426;13.330;2022-07-22T03:47:05;11.13;;;8.80;;
24419;SDS011;12599;52.426;13.330;2022-07-22T03:49:31;9.73;;;8.70;;
24419;SDS011;12599;52.426;13.330;2022-07-22T03:51:57;11.63;;;9.70;;
24419;SDS011;12599;52.426;13.330;2022-07-22T03:54:23;11.20;;;9.13;;
24419;SDS011;12599;52.426;13.330;2022-07-22T03:56:48;11.63;;;8.93;;
24419;SDS011;12599;52.426;13.330;2022-07-22T03:59:15;12.63;;;9.33;;
24419;SDS011;12599;52.426;13.330;2022-07-22T04:01:40;12.67;;;9.27;;
24419;SDS011;12599;52.426;13.330;2022-07-22T04:04:06;12.73;;;9.10;;
24419;SDS011;12599;52.426;13.330;2022-07-22T04:06:32;11.47;;;9.30;;
24419;SDS011;12599;52.426;13.330;2022-07-22T04:08:57;10.90;;;8.47;;
24419;SDS011;12599;52.426;13.330;2022-07-22T04:11:23;11.40;;;8.40;;
24419;SDS011;12599;52.426;13.330;2022-07-22T04:13:49;11.27;;;9.60;;
24419;SDS011;12599;52.426;13.330;2022-07-22T04:16:14;12.40;;;9.80;;
24419;SDS011;12599;52.426;13.330;2022-07-22T04:18:40;12.93;;;9.90;;
24419;SDS011;12599;52.426;13.330;2022-07-22T04:21:05;13.40;;;9.57;;
24419;SDS011;12599;52.426;13.330;2022-07-22T04:23:31;11.27;;;9.47;;
24419;SDS011;12599;52.426;13.330;2022-07-22T04:25:57;11.53;;;9.33;;
24419;SDS011;12599;52.426;13.330;2022-07-22T04:28:22;12.23;;;9.77;;
24419;SDS011;12599;52.426;13.330;2022-07-22T04:30:48;11.07;;;9.63;;
24419;SDS011;12599;52.426;13.330;2022-07-22T04:33:13;12.10;;;9.77;;
24419;SDS011;12599;52.426;13.330;2022-07-22T04:35:39;13.03;;;9.77;;
24419;SDS011;12599;52.426;13.330;2022-07-22T04:38:05;11.63;;;10.10;;
24419;SDS011;12599;52.426;13.330;2022-07-22T04:40:30;11.73;;;9.70;;
24419;SDS011;12599;52.426;13.330;2022-07-22T04:42:56;11.60;;;10.40;;
24419;SDS011;12599;52.426;13.330;2022-07-22T04:45:21;11.20;;;9.40;;
24419;SDS011;12599;52.426;13.330;2022-07-22T04:47:47;11.67;;;9.57;;
24419;SDS011;12599;52.426;13.330;2022-07-22T04:50:12;11.67;;;9.67;;
24419;SDS011;12599;52.426;13.330;2022-07-22T04:52:38;15.43;;;11.77;;
24419;SDS011;12599;52.426;13.330;2022-07-22T04:55:04;13.23;;;10.33;;
24419;SDS011;12599;52.426;13.330;2022-07-22T04:57:30;13.67;;;11.37;;
24419;SDS011;12599;52.426;13.330;2022-07-22T04:59:55;13.30;;;10.17;;
24419;SDS011;12599;52.426;13.330;2022-07-22T05:02:21;12.37;;;9.70;;
24419;SDS011;12599;52.426;13.330;2022-07-22T05:04:46;11.73;;;10.33;;
24419;SDS011;12599;52.426;13.330;2022-07-22T05:07:12;12.37;;;9.43;;
24419;SDS011;12599;52.426;13.330;2022-07-22T05:09:37;13.13;;;10.67;;
24419;SDS011;12599;52.426;13.330;2022-07-22T05:12:03;12.53;;;10.97;;
24419;SDS011;12599;52.426;13.330;2022-07-22T05:14:29;11.50;;;9.57;;
24419;SDS011;12599;52.426;13.330;2022-07-22T05:16:55;13.13;;;9.93;;
24419;SDS011;12599;52.426;13.330;2022-07-22T05:19:21;11.97;;;10.30;;
24419;SDS011;12599;52.426;13.330;2022-07-22T05:21:46;12.27;;;10.20;;
24419;SDS011;12599;52.426;13.330;2022-07-22T05:24:12;12.30;;;10.97;;
24419;SDS011;12599;52.426;13.330;2022-07-22T05:26:38;16.07;;;10.50;;
24419;SDS011;12599;52.426;13.330;2022-07-22T05:29:03;12.97;;;9.77;;
24419;SDS011;12599;52.426;13.330;2022-07-22T05:31:29;12.60;;;10.60;;
24419;SDS011;12599;52.426;13.330;2022-07-22T05:33:55;14.50;;;11.03;;
24419;SDS011;12599;52.426;13.330;2022-07-22T05:36:22;13.60;;;10.03;;
24419;SDS011;12599;52.426;13.330;2022-07-22T05:38:48;13.33;;;10.70;;
24419;SDS011;12599;52.426;13.330;2022-07-22T05:41:13;11.57;;;9.73;;
24419;SDS011;12599;52.426;13.330;2022-07-22T05:43:39;12.40;;;10.30;;
24419;SDS011;12599;52.426;13.330;2022-07-22T05:46:05;13.57;;;10.80;;
24419;SDS011;12599;52.426;13.330;2022-07-22T05:48:32;13.30;;;10.70;;
24419;SDS011;12599;52.426;13.330;2022-07-22T05:50:58;11.90;;;9.17;;
24419;SDS011;12599;52.426;13.330;2022-07-22T05:53:24;12.33;;;10.70;;
24419;SDS011;12599;52.426;13.330;2022-07-22T05:55:50;13.13;;;11.03;;
24419;SDS011;12599;52.426;13.330;2022-07-22T05:58:15;14.87;;;10.97;;
24419;SDS011;12599;52.426;13.330;2022-07-22T06:00:41;13.40;;;11.47;;
24419;SDS011;12599;52.426;13.330;2022-07-22T06:03:07;14.23;;;11.57;;
24419;SDS011;12599;52.426;13.330;2022-07-22T06:05:33;13.10;;;11.23;;
24419;SDS011;12599;52.426;13.330;2022-07-22T06:08:00;14.67;;;12.27;;
24419;SDS011;12599;52.426;13.330;2022-07-22T06:10:26;13.93;;;11.67;;
24419;SDS011;12599;52.426;13.330;2022-07-22T06:12:52;12.47;;;10.30;;
24419;SDS011;12599;52.426;13.330;2022-07-22T06:15:18;11.70;;;9.60;;
24419;SDS011;12599;52.426;13.330;2022-07-22T06:17:43;12.27;;;10.70;;
24419;SDS011;12599;52.426;13.330;2022-07-22T06:20:09;14.60;;;11.00;;
24419;SDS011;12599;52.426;13.330;2022-07-22T06:22:35;13.20;;;10.73;;
24419;SDS011;12599;52.426;13.330;2022-07-22T06:25:00;16.07;;;10.60;;
24419;SDS011;12599;52.426;13.330;2022-07-22T06:27:26;10.77;;;9.63;;
24419;SDS011;12599;52.426;13.330;2022-07-22T06:29:51;12.90;;;10.20;;
24419;SDS011;12599;52.426;13.330;2022-07-22T06:32:17;13.83;;;10.13;;
24419;SDS011;12599;52.426;13.330;2022-07-22T06:34:42;10.60;;;9.10;;
24419;SDS011;12599;52.426;13.330;2022-07-22T06:37:08;9.73;;;8.70;;
24419;SDS011;12599;52.426;13.330;2022-07-22T06:39:34;10.27;;;8.57;;
24419;SDS011;12599;52.426;13.330;2022-07-22T06:41:59;11.20;;;9.90;;
24419;SDS011;12599;52.426;13.330;2022-07-22T06:44:25;11.13;;;9.23;;
24419;SDS011;12599;52.426;13.330;2022-07-22T06:46:51;11.93;;;10.13;;
24419;SDS011;12599;52.426;13.330;2022-07-22T06:49:16;11.03;;;9.47;;
24419;SDS011;12599;52.426;13.330;2022-07-22T06:51:42;10.77;;;9.10;;
24419;SDS011;12599;52.426;13.330;2022-07-22T06:54:08;10.97;;;8.90;;
24419;SDS011;12599;52.426;13.330;2022-07-22T06:56:33;10.10;;;8.80;;
24419;SDS011;12599;52.426;13.330;2022-07-22T06:58:59;9.80;;;8.47;;
24419;SDS011;12599;52.426;13.330;2022-07-22T07:01:24;9.77;;;8.33;;
24419;SDS011;12599;52.426;13.330;2022-07-22T07:03:50;9.87;;;8.23;;
24419;SDS011;12599;52.426;13.330;2022-07-22T07:06:16;9.40;;;8.30;;
24419;SDS011;12599;52.426;13.330;2022-07-22T07:08:42;9.33;;;7.53;;
24419;SDS011;12599;52.426;13.330;2022-07-22T07:11:07;9.90;;;7.73;;
24419;SDS011;12599;52.426;13.330;2022-07-22T07:13:33;9.07;;;7.90;;
24419;SDS011;12599;52.426;13.330;2022-07-22T07:15:59;8.40;;;7.23;;
24419;SDS011;12599;52.426;13.330;2022-07-22T07:18:24;8.67;;;7.03;;
24419;SDS011;12599;52.426;13.330;2022-07-22T07:20:50;9.37;;;7.17;;
24419;SDS011;12599;52.426;13.330;2022-07-22T07:23:16;8.13;;;7.33;;
24419;SDS011;12599;52.426;13.330;2022-07-22T07:25:41;8.27;;;7.03;;
24419;SDS011;12599;52.426;13.330;2022-07-22T07:28:07;9.37;;;7.43;;
24419;SDS011;12599;52.426;13.330;2022-07-22T07:30:33;9.77;;;7.20;;
24419;SDS011;12599;52.426;13.330;2022-07-22T07:32:59;9.43;;;7.40;;
24419;SDS011;12599;52.426;13.330;2022-07-22T07:35:27;10.07;;;7.13;;
24419;SDS011;12599;52.426;13.330;2022-07-22T07:37:54;8.73;;;6.57;;
24419;SDS011;12599;52.426;13.330;2022-07-22T07:40:20;8.07;;;7.00;;
24419;SDS011;12599;52.426;13.330;2022-07-22T07:42:46;8.00;;;7.10;;
24419;SDS011;12599;52.426;13.330;2022-07-22T07:45:11;9.10;;;6.67;;
24419;SDS011;12599;52.426;13.330;2022-07-22T07:47:37;8.10;;;6.97;;
24419;SDS011;12599;52.426;13.330;2022-07-22T07:50:04;8.00;;;7.00;;
24419;SDS011;12599;52.426;13.330;2022-07-22T07:52:36;7.90;;;6.50;;
24419;SDS011;12599;52.426;13.330;2022-07-22T07:55:03;10.57;;;7.60;;
24419;SDS011;12599;52.426;13.330;2022-07-22T07:57:29;7.93;;;6.43;;
24419;SDS011;12599;52.426;13.330;2022-07-22T07:59:55;7.87;;;6.60;;
24419;SDS011;12599;52.426;13.330;2022-07-22T08:02:20;7.70;;;6.23;;
24419;SDS011;12599;52.426;13.330;2022-07-22T08:04:46;8.53;;;6.80;;
24419;SDS011;12599;52.426;13.330;2022-07-22T08:07:11;7.20;;;6.20;;
24419;SDS011;12599;52.426;13.330;2022-07-22T08:09:37;7.43;;;5.90;;
24419;SDS011;12599;52.426;13.330;2022-07-22T08:12:03;7.10;;;6.23;;
24419;SDS011;12599;52.426;13.330;2022-07-22T08:14:30;9.13;;;5.90;;
24419;SDS011;12599;52.426;13.330;2022-07-22T08:16:55;8.07;;;6.80;;
24419;SDS011;12599;52.426;13.330;2022-07-22T08:19:21;7.60;;;5.50;;
24419;SDS011;12599;52.426;13.330;2022-07-22T08:21:47;6.43;;;5.47;;
24419;SDS011;12599;52.426;13.330;2022-07-22T08:24:13;5.60;;;5.10;;
24419;SDS011;12599;52.426;13.330;2022-07-22T08:26:38;6.90;;;4.80;;
24419;SDS011;12599;52.426;13.330;2022-07-22T08:29:04;6.20;;;5.60;;
24419;SDS011;12599;52.426;13.330;2022-07-22T08:31:30;8.40;;;5.20;;
24419;SDS011;12599;52.426;13.330;2022-07-22T08:34:00;6.20;;;5.30;;
24419;SDS011;12599;52.426;13.330;2022-07-22T08:36:26;5.43;;;4.87;;
24419;SDS011;12599;52.426;13.330;2022-07-22T08:38:53;6.50;;;5.07;;
24419;SDS011;12599;52.426;13.330;2022-07-22T08:41:18;5.07;;;4.57;;
24419;SDS011;12599;52.426;13.330;2022-07-22T08:43:47;9.60;;;4.77;;
24419;SDS011;12599;52.426;13.330;2022-07-22T08:46:12;6.63;;;4.47;;
24419;SDS011;12599;52.426;13.330;2022-07-22T08:48:38;6.87;;;5.17;;
24419;SDS011;12599;52.426;13.330;2022-07-22T08:51:05;5.57;;;4.77;;
24419;SDS011;12599;52.426;13.330;2022-07-22T08:53:31;5.70;;;5.10;;
24419;SDS011;12599;52.426;13.330;2022-07-22T08:55:57;4.73;;;4.33;;
24419;SDS011;12599;52.426;13.330;2022-07-22T08:58:24;5.77;;;4.50;;
24419;SDS011;12599;52.426;13.330;2022-07-22T09:03:43;6.33;;;4.63;;
24419;SDS011;12599;52.426;13.330;2022-07-22T09:06:09;5.03;;;4.57;;
24419;SDS011;12599;52.426;13.330;2022-07-22T09:08:49;5.40;;;4.90;;
24419;SDS011;12599;52.426;13.330;2022-07-22T09:11:15;5.87;;;4.80;;
24419;SDS011;12599;52.426;13.330;2022-07-22T09:13:42;5.57;;;5.00;;
24419;SDS011;12599;52.426;13.330;2022-07-22T09:16:09;5.53;;;4.77;;
24419;SDS011;12599;52.426;13.330;2022-07-22T09:18:48;5.50;;;4.90;;
24419;SDS011;12599;52.426;13.330;2022-07-22T09:21:15;4.60;;;4.20;;
24419;SDS011;12599;52.426;13.330;2022-07-22T09:23:41;7.97;;;4.80;;
24419;SDS011;12599;52.426;13.330;2022-07-22T09:26:08;5.43;;;4.70;;
24419;SDS011;12599;52.426;13.330;2022-07-22T09:28:55;9.17;;;5.33;;
24419;SDS011;12599;52.426;13.330;2022-07-22T09:31:25;6.27;;;4.97;;
24419;SDS011;12599;52.426;13.330;2022-07-22T09:33:54;5.47;;;4.47;;
24419;SDS011;12599;52.426;13.330;2022-07-22T09:36:20;4.83;;;4.10;;
24419;SDS011;12599;52.426;13.330;2022-07-22T09:38:45;6.77;;;4.50;;
24419;SDS011;12599;52.426;13.330;2022-07-22T09:41:11;4.93;;;4.43;;
24419;SDS011;12599;52.426;13.330;2022-07-22T09:43:38;5.77;;;4.47;;
24419;SDS011;12599;52.426;13.330;2022-07-22T09:46:04;6.13;;;3.90;;
24419;SDS011;12599;52.426;13.330;2022-07-22T09:48:31;4.33;;;3.97;;
24419;SDS011;12599;52.426;13.330;2022-07-22T09:50:56;5.67;;;4.07;;
24419;SDS011;12599;52.426;13.330;2022-07-22T09:53:25;5.00;;;4.10;;
24419;SDS011;12599;52.426;13.330;2022-07-22T09:55:54;5.17;;;4.17;;
24419;SDS011;12599;52.426;13.330;2022-07-22T09:58:20;7.13;;;4.43;;
24419;SDS011;12599;52.426;13.330;2022-07-22T10:00:46;3.63;;;3.33;;
24419;SDS011;12599;52.426;13.330;2022-07-22T10:03:23;7.00;;;3.40;;
24419;SDS011;12599;52.426;13.330;2022-07-22T10:05:51;3.67;;;3.30;;
24419;SDS011;12599;52.426;13.330;2022-07-22T10:08:18;4.50;;;3.10;;
24419;SDS011;12599;52.426;13.330;2022-07-22T10:10:45;5.53;;;3.73;;
24419;SDS011;12599;52.426;13.330;2022-07-22T10:13:11;4.50;;;3.20;;
24419;SDS011;12599;52.426;13.330;2022-07-22T10:15:37;3.50;;;3.20;;
24419;SDS011;12599;52.426;13.330;2022-07-22T10:18:05;4.40;;;3.67;;
24419;SDS011;12599;52.426;13.330;2022-07-22T10:20:35;3.73;;;3.20;;
24419;SDS011;12599;52.426;13.330;2022-07-22T10:23:08;3.50;;;3.20;;
24419;SDS011;12599;52.426;13.330;2022-07-22T10:30:52;3.57;;;3.27;;
24419;SDS011;12599;52.426;13.330;2022-07-22T10:33:32;3.60;;;3.30;;
24419;SDS011;12599;52.426;13.330;2022-07-22T10:36:02;4.60;;;3.30;;
24419;SDS011;12599;52.426;13.330;2022-07-22T10:38:30;4.00;;;3.60;;
24419;SDS011;12599;52.426;13.330;2022-07-22T10:41:03;3.23;;;3.00;;
24419;SDS011;12599;52.426;13.330;2022-07-22T10:43:32;3.13;;;2.83;;
24419;SDS011;12599;52.426;13.330;2022-07-22T10:46:11;5.90;;;3.27;;
24419;SDS011;12599;52.426;13.330;2022-07-22T10:51:07;5.00;;;3.50;;
24419;SDS011;12599;52.426;13.330;2022-07-22T10:58:52;5.50;;;3.40;;
24419;SDS011;12599;52.426;13.330;2022-07-22T11:01:21;7.17;;;3.57;;
24419;SDS011;12599;52.426;13.330;2022-07-22T11:03:49;3.60;;;3.30;;
24419;SDS011;12599;52.426;13.330;2022-07-22T11:06:16;3.80;;;3.47;;
24419;SDS011;12599;52.426;13.330;2022-07-22T11:08:48;3.50;;;3.20;;
24419;SDS011;12599;52.426;13.330;2022-07-22T11:11:16;4.90;;;3.10;;
24419;SDS011;12599;52.426;13.330;2022-07-22T11:13:42;3.50;;;3.20;;
24419;SDS011;12599;52.426;13.330;2022-07-22T11:16:22;3.80;;;3.30;;
24419;SDS011;12599;52.426;13.330;2022-07-22T11:18:59;4.50;;;3.47;;
24419;SDS011;12599;52.426;13.330;2022-07-22T11:21:28;3.93;;;3.53;;
24419;SDS011;12599;52.426;13.330;2022-07-22T11:23:59;3.93;;;3.63;;
24419;SDS011;12599;52.426;13.330;2022-07-22T11:26:42;3.90;;;3.60;;
24419;SDS011;12599;52.426;13.330;2022-07-22T11:29:10;3.93;;;3.53;;
24419;SDS011;12599;52.426;13.330;2022-07-22T11:32:09;4.63;;;3.97;;
24419;SDS011;12599;52.426;13.330;2022-07-22T11:34:36;4.33;;;3.93;;
24419;SDS011;12599;52.426;13.330;2022-07-22T11:37:03;6.03;;;3.63;;
24419;SDS011;12599;52.426;13.330;2022-07-22T11:39:30;3.80;;;3.40;;
24419;SDS011;12599;52.426;13.330;2022-07-22T11:41:57;3.80;;;3.50;;
24419;SDS011;12599;52.426;13.330;2022-07-22T11:44:26;5.80;;;4.10;;
24419;SDS011;12599;52.426;13.330;2022-07-22T11:46:53;3.70;;;3.40;;
24419;SDS011;12599;52.426;13.330;2022-07-22T11:49:23;4.57;;;3.23;;
24419;SDS011;12599;52.426;13.330;2022-07-22T11:51:50;3.47;;;3.17;;
24419;SDS011;12599;52.426;13.330;2022-07-22T11:54:16;4.67;;;3.60;;
24419;SDS011;12599;52.426;13.330;2022-07-22T11:56:43;5.90;;;3.90;;
24419;SDS011;12599;52.426;13.330;2022-07-22T11:59:12;4.40;;;3.60;;
24419;SDS011;12599;52.426;13.330;2022-07-22T12:01:39;3.87;;;3.50;;
24419;SDS011;12599;52.426;13.330;2022-07-22T12:04:13;4.93;;;3.83;;
24419;SDS011;12599;52.426;13.330;2022-07-22T12:06:43;3.20;;;3.00;;
24419;SDS011;12599;52.426;13.330;2022-07-22T12:09:11;3.53;;;3.10;;
24419;SDS011;12599;52.426;13.330;2022-07-22T12:11:40;4.47;;;3.17;;
24419;SDS011;12599;52.426;13.330;2022-07-22T12:14:11;4.17;;;2.90;;
24419;SDS011;12599;52.426;13.330;2022-07-22T12:16:39;3.30;;;2.90;;
24419;SDS011;12599;52.426;13.330;2022-07-22T12:19:06;3.53;;;2.53;;
24419;SDS011;12599;52.426;13.330;2022-07-22T12:21:34;2.70;;;2.50;;
24419;SDS011;12599;52.426;13.330;2022-07-22T12:24:03;2.50;;;2.30;;
24419;SDS011;12599;52.426;13.330;2022-07-22T12:26:38;8.23;;;2.90;;
24419;SDS011;12599;52.426;13.330;2022-07-22T12:29:12;4.03;;;2.17;;
24419;SDS011;12599;52.426;13.330;2022-07-22T12:31:46;2.73;;;2.53;;
24419;SDS011;12599;52.426;13.330;2022-07-22T12:34:13;2.67;;;2.43;;
24419;SDS011;12599;52.426;13.330;2022-07-22T12:36:46;3.43;;;2.37;;
24419;SDS011;12599;52.426;13.330;2022-07-22T12:39:16;7.23;;;2.90;;
24419;SDS011;12599;52.426;13.330;2022-07-22T12:41:50;3.30;;;2.73;;
24419;SDS011;12599;52.426;13.330;2022-07-22T12:44:26;4.87;;;2.67;;
24419;SDS011;12599;52.426;13.330;2022-07-22T12:46:55;3.10;;;2.43;;
24419;SDS011;12599;52.426;13.330;2022-07-22T12:49:22;2.97;;;2.20;;
24419;SDS011;12599;52.426;13.330;2022-07-22T12:54:51;2.40;;;2.20;;
24419;SDS011;12599;52.426;13.330;2022-07-22T12:57:17;2.63;;;2.40;;
24419;SDS011;12599;52.426;13.330;2022-07-22T12:59:50;2.77;;;2.57;;
24419;SDS011;12599;52.426;13.330;2022-07-22T13:02:17;2.33;;;2.10;;
24419;SDS011;12599;52.426;13.330;2022-07-22T13:04:42;2.30;;;2.10;;
24419;SDS011;12599;52.426;13.330;2022-07-22T13:07:08;5.63;;;2.43;;
24419;SDS011;12599;52.426;13.330;2022-07-22T13:09:33;2.53;;;2.30;;
24419;SDS011;12599;52.426;13.330;2022-07-22T13:11:59;3.10;;;2.57;;
24419;SDS011;12599;52.426;13.330;2022-07-22T13:14:24;2.87;;;2.20;;
24419;SDS011;12599;52.426;13.330;2022-07-22T13:16:50;2.50;;;2.30;;
24419;SDS011;12599;52.426;13.330;2022-07-22T13:19:16;2.50;;;2.30;;
24419;SDS011;12599;52.426;13.330;2022-07-22T13:21:41;3.07;;;2.13;;
24419;SDS011;12599;52.426;13.330;2022-07-22T13:24:08;4.77;;;2.53;;
24419;SDS011;12599;52.426;13.330;2022-07-22T13:26:34;7.93;;;2.57;;
24419;SDS011;12599;52.426;13.330;2022-07-22T13:29:00;3.70;;;2.07;;
24419;SDS011;12599;52.426;13.330;2022-07-22T13:31:25;2.67;;;2.10;;
24419;SDS011;12599;52.426;13.330;2022-07-22T13:33:52;1.97;;;1.80;;
24419;SDS011;12599;52.426;13.330;2022-07-22T13:36:17;2.50;;;1.80;;
24419;SDS011;12599;52.426;13.330;2022-07-22T13:38:43;3.03;;;1.80;;
24419;SDS011;12599;52.426;13.330;2022-07-22T13:41:08;3.03;;;1.70;;
24419;SDS011;12599;52.426;13.330;2022-07-22T13:43:41;2.83;;;2.10;;
24419;SDS011;12599;52.426;13.330;2022-07-22T13:46:07;2.90;;;2.60;;
24419;SDS011;12599;52.426;13.330;2022-07-22T13:48:33;2.43;;;2.23;;
24419;SDS011;12599;52.426;13.330;2022-07-22T13:50:59;2.20;;;2.00;;
24419;SDS011;12599;52.426;13.330;2022-07-22T13:53:24;2.00;;;1.80;;
24419;SDS011;12599;52.426;13.330;2022-07-22T13:55:50;2.80;;;2.07;;
24419;SDS011;12599;52.426;13.330;2022-07-22T13:58:15;2.33;;;2.10;;
24419;SDS011;12599;52.426;13.330;2022-07-22T14:00:41;4.90;;;2.00;;
24419;SDS011;12599;52.426;13.330;2022-07-22T14:03:07;2.07;;;1.97;;
24419;SDS011;12599;52.426;13.330;2022-07-22T14:05:32;2.30;;;1.80;;
24419;SDS011;12599;52.426;13.330;2022-07-22T14:07:58;2.20;;;1.63;;
24419;SDS011;12599;52.426;13.330;2022-07-22T14:10:23;2.10;;;1.77;;
24419;SDS011;12599;52.426;13.330;2022-07-22T14:12:49;2.27;;;2.07;;
24419;SDS011;12599;52.426;13.330;2022-07-22T14:15:15;1.80;;;1.70;;
24419;SDS011;12599;52.426;13.330;2022-07-22T14:17:41;2.40;;;1.90;;
24419;SDS011;12599;52.426;13.330;2022-07-22T14:20:06;3.57;;;1.90;;
24419;SDS011;12599;52.426;13.330;2022-07-22T14:22:33;1.80;;;1.70;;
24419;SDS011;12599;52.426;13.330;2022-07-22T14:24:59;2.83;;;1.90;;
24419;SDS011;12599;52.426;13.330;2022-07-22T14:27:25;2.17;;;1.80;;
24419;SDS011;12599;52.426;13.330;2022-07-22T14:29:50;1.93;;;1.83;;
24419;SDS011;12599;52.426;13.330;2022-07-22T14:32:16;2.63;;;2.00;;
24419;SDS011;12599;52.426;13.330;2022-07-22T14:34:42;3.70;;;1.60;;
24419;SDS011;12599;52.426;13.330;2022-07-22T14:37:08;2.67;;;1.77;;
24419;SDS011;12599;52.426;13.330;2022-07-22T14:39:33;2.77;;;1.67;;
24419;SDS011;12599;52.426;13.330;2022-07-22T14:42:00;2.00;;;1.80;;
24419;SDS011;12599;52.426;13.330;2022-07-22T14:44:25;1.70;;;1.60;;